Impacts METAR Board INFO
IDs:

KDFW - Dallas-Ft Worth Intl, TX, US

Updated at: 1430 UTC 18 Dec 2017
Potential Impact None Slight Moderate High
Time18/02Z 18/03Z 18/04Z 18/05Z 18/06Z 18/07Z 18/08Z 18/09Z 18/10Z 18/11Z 18/12Z 18/13Z 18/14Z
VIS6 5 5 5 5 4 2 2 3 1.5 0.25 0.25 0.25
CIG12 9 7 6 5 4 3 4 4 2 2 2 2
CoverOVCOVCOVCOVCOVCOVCOVCOVCOVCOVCOVCOVCOVC
FltCatMVFRIFRIFRIFRIFRLIFRLIFRLIFRLIFRLIFRLIFRLIFRLIFR
WXBRBRBRBRBRBR-DZ BR-DZ BRBRBRBRBRBR
WDir15014014001701501500000140130
WSpd4 4 4 0 5 7 3 0 0 0 0 4 4
WGst-- -- -- -- -- -- -- -- -- -- -- -- --
Raw hourly METARs
KDFW 180153Z 15004KT 6SM BR BKN012 OVC250 09/07 A3008 RMK AO2 SLP185 T00890072 $
KDFW 180253Z 14004KT 5SM BR BKN009 OVC250 09/08 A3010 RMK AO2 SLP190 T00890078 51022 $
KDFW 180353Z 14004KT 5SM BR OVC007 09/08 A3011 RMK AO2 SLP195 T00940078 $
KDFW 180453Z 00000KT 5SM BR OVC006 10/08 A3011 RMK AO2 SLP196 T01000083 $
KDFW 180553Z 17005KT 5SM BR OVC005 10/08 A3011 RMK AO2 SLP196 T01000083 10100 20083 401170072 51006 $
KDFW 180653Z 15007KT 4SM BR OVC004 10/08 A3012 RMK AO2 SLP197 T01000083 $
KDFW 180753Z 15003KT 2SM -DZ BR OVC003 10/09 A3013 RMK AO2 DZB53 SLP201 P0000 T01000089 $
KDFW 180853Z 00000KT 2SM -DZ BR OVC004 10/09 A3013 RMK AO2 DZE29B52 SLP203 P0000 60000 T01000089 53006 $
KDFW 180953Z 00000KT 3SM BR OVC004 10/09 A3013 RMK AO2 DZE18 SLP201 P0000 T01000089 $
KDFW 181053Z 00000KT 1 1/2SM BR OVC002 10/09 A3014 RMK AO2 SLP203 T01000089 $
KDFW 181153Z 00000KT 1/4SM R17C/P6000FT BR OVC002 09/09 A3015 RMK AO2 SFC VIS 1 1/2 SLP209 60000 T00940089 10100 20094 53006 $
KDFW 181253Z 14004KT 1/4SM R17C/P6000FT BR OVC002 09/08 A3016 RMK AO2 SFC VIS 1 1/4 SLP211 T00940083 $
KDFW 181353Z 13004KT 1/4SM R17C/4500VP6000FT BR OVC002 09/09 A3017 RMK AO2 SFC VIS 1 SLP215 T00940089 $